Gilead, Nebraska
Current Conditions -  °F | °C
As of 1:35 PM on Friday 31 Oct 2014 (Local Time) from KHJH Reporting Station
Clear Clear  
Wind Chill: 35°   Ceiling: Unl
Heat Index: 40°   Visibility: 10mi
Dew Point: 11°   Wind: 9mph
Humidity: 30%   Direction: 20°NNE
Pressure: 30.54"   Gusts: NA
Location:  40.15°N, 97.41°W
Report Text: KHJH 311835Z AUTO 02008KT 10SM CLR 05/M12 A3054 RMK AO2 T00471117
Loading
Personal Weather Stations






























Interactive Weather Map
Tropical Storm Tracking
New forecast layout! Learn more

10-Day Weather Forecast

Advertisements
Track Severe Weather on mobile